Colusa, California
Current Conditions -  °F | °C
As of 8:53 AM on Friday 28 Nov 2014 (Local Time) from KOVE Reporting Station
Clear Clear  
Wind Chill: 45°   Ceiling: Unl
Heat Index: 47°   Visibility: 10mi
Dew Point: 42°   Wind: 5mph
Humidity: 83%   Direction: 160°SSE
Pressure: 30.02"   Gusts: NA
Location:  39.21°N, 122.01°W
Report Text: KOVE 281653Z AUTO 16004KT 10SM CLR 08/06 A3002 RMK AO2 SLP167 T00830056
Loading
Personal Weather Stations






























Interactive Weather Map New forecast layout! Learn more

10-Day Weather Forecast

Advertisements
Track Severe Weather on mobile